createdAt,value
2018-12-07T00:01:36.865Z,100312.29
2018-12-07T00:04:06.101Z,100313.27
2018-12-07T00:06:35.415Z,100308.89
2018-12-07T00:09:07.210Z,100308.66
2018-12-07T00:11:36.474Z,100305.86
2018-12-07T00:14:05.788Z,100304.17
2018-12-07T00:16:35.054Z,100301.73
2018-12-07T00:19:04.427Z,100304.53
2018-12-07T00:21:33.833Z,100299.06
2018-12-07T00:24:03.214Z,100292.52
2018-12-07T00:26:32.497Z,100298.70
2018-12-07T00:29:02.033Z,100296.88
2018-12-07T00:31:32.833Z,100299.55
2018-12-07T00:34:02.299Z,100300.52
2018-12-07T00:36:31.532Z,100291.78
2018-12-07T00:39:00.889Z,100281.83
2018-12-07T00:41:30.416Z,100291.05
2018-12-07T00:43:59.804Z,100293.48
2018-12-07T00:46:29.368Z,100284.75
2018-12-07T00:48:58.656Z,100292.13
2018-12-07T00:51:27.985Z,100284.23
2018-12-07T00:53:57.885Z,100285.21
2018-12-07T00:56:28.452Z,100286.19
2018-12-07T00:58:58.085Z,100281.20
2018-12-07T01:01:27.700Z,100273.81
2018-12-07T01:03:57.114Z,100274.42
2018-12-07T01:06:26.472Z,100278.55
2018-12-07T01:08:55.940Z,100275.75
2018-12-07T01:11:25.563Z,100275.75
2018-12-07T01:13:54.862Z,100273.30
2018-12-07T01:16:24.224Z,100274.63
2018-12-07T01:18:53.899Z,100281.44
2018-12-07T01:21:23.219Z,100279.25
2018-12-07T01:23:52.580Z,100273.42
2018-12-07T01:26:21.824Z,100273.21
2018-12-07T01:28:51.111Z,100280.58
2018-12-07T01:31:20.542Z,100282.17
2018-12-07T01:33:49.865Z,100277.44
2018-12-07T01:36:19.192Z,100281.92
2018-12-07T01:38:49.341Z,100275.86
2018-12-07T01:41:18.647Z,100282.62
2018-12-07T01:43:48.074Z,100285.30
2018-12-07T01:46:17.451Z,100289.21
2018-12-07T01:48:46.912Z,100283.59
2018-12-07T01:51:16.210Z,100291.24
2018-12-07T01:53:46.847Z,100279.36
2018-12-07T01:56:16.963Z,100277.05
2018-12-07T01:58:46.294Z,100269.04
2018-12-07T02:01:15.790Z,100262.85
2018-12-07T02:03:45.278Z,100269.77
2018-12-07T02:06:15.234Z,100278.63
2018-12-07T02:08:44.875Z,100277.53
2018-12-07T02:11:14.408Z,100273.77
2018-12-07T02:13:43.784Z,100266.61
2018-12-07T02:16:14.369Z,100262.61
2018-12-07T02:18:43.841Z,100269.41
2018-12-07T02:21:13.125Z,100261.76
2018-12-07T02:23:43.326Z,100261.67
2018-12-07T02:26:12.811Z,100266.03
2018-12-07T02:28:42.311Z,100258.23
2018-12-07T02:31:12.399Z,100256.91
2018-12-07T02:33:41.953Z,100256.55
2018-12-07T02:36:11.652Z,100260.91
2018-12-07T02:38:41.057Z,100261.27
2018-12-07T02:41:10.701Z,100264.91
2018-12-07T02:43:40.052Z,100262.03
2018-12-07T02:46:09.576Z,100261.78
2018-12-07T02:48:39.611Z,100266.76
2018-12-07T02:51:08.853Z,100255.11
2018-12-07T02:53:38.603Z,100248.31
2018-12-07T02:56:08.615Z,100244.66
2018-12-07T02:58:38.043Z,100243.20
2018-12-07T03:01:07.491Z,100242.36
2018-12-07T03:03:36.835Z,100240.66
2018-12-07T03:06:06.725Z,100240.79
2018-12-07T03:08:35.987Z,100232.78
2018-12-07T03:11:06.824Z,100240.19
2018-12-07T03:13:36.457Z,100247.34
2018-12-07T03:16:06.441Z,100239.92
2018-12-07T03:18:35.964Z,100235.33
2018-12-07T03:21:05.471Z,100239.34
2018-12-07T03:23:34.969Z,100241.86
2018-12-07T03:26:04.531Z,100247.20
2018-12-07T03:28:34.368Z,100246.48
2018-12-07T03:31:04.310Z,100246.11
2018-12-07T03:33:33.682Z,100238.93
2018-12-07T03:36:03.406Z,100241.99
2018-12-07T03:38:32.896Z,100245.60
2018-12-07T03:41:02.326Z,100241.99
2018-12-07T03:43:31.800Z,100236.66
2018-12-07T03:46:01.535Z,100233.86
2018-12-07T03:48:32.011Z,100236.66
2018-12-07T03:51:01.769Z,100239.44
2018-12-07T03:53:32.330Z,100236.16
2018-12-07T03:56:01.679Z,100232.41
2018-12-07T03:58:31.041Z,100231.19
2018-12-07T04:01:00.535Z,100228.41
2018-12-07T04:03:30.468Z,100228.89
2018-12-07T04:05:59.847Z,100219.67
2018-12-07T04:08:29.207Z,100217.48
2018-12-07T04:10:58.585Z,100207.30
2018-12-07T04:13:28.088Z,100215.30
2018-12-07T04:15:57.661Z,100214.33
2018-12-07T04:18:26.935Z,100213.97
2018-12-07T04:20:56.321Z,100218.42
2018-12-07T04:23:25.949Z,100219.31
2018-12-07T04:25:55.348Z,100219.67
2018-12-07T04:28:24.787Z,100212.88
2018-12-07T04:30:54.406Z,100208.84
2018-12-07T04:33:23.797Z,100206.91
2018-12-07T04:35:54.093Z,100197.08
2018-12-07T04:38:23.769Z,100195.86
2018-12-07T04:40:53.849Z,100204.62
2018-12-07T04:43:23.569Z,100197.34
2018-12-07T04:45:52.880Z,100201.09
2018-12-07T04:48:24.373Z,100196.84
2018-12-07T04:50:55.355Z,100192.63
2018-12-07T04:53:24.730Z,100198.94
2018-12-07T04:55:54.028Z,100190.05
2018-12-07T04:58:23.536Z,100185.10
2018-12-07T05:00:52.841Z,100186.92
2018-12-07T05:03:22.157Z,100193.83
2018-12-07T05:05:51.660Z,100194.06
2018-12-07T05:08:21.018Z,100189.58
2018-12-07T05:10:50.394Z,100190.19
2018-12-07T05:13:19.812Z,100182.18
2018-12-07T05:15:49.304Z,100180.11
2018-12-07T05:18:18.838Z,100181.56
2018-12-07T05:20:48.184Z,100178.77
2018-12-07T05:23:17.500Z,100183.86
2018-12-07T05:25:46.953Z,100170.91
2018-12-07T05:28:16.381Z,100167.26
2018-12-07T05:30:46.026Z,100167.39
2018-12-07T05:33:16.733Z,100171.63
2018-12-07T05:35:47.177Z,100168.58
2018-12-07T05:38:16.488Z,100161.53
2018-12-07T05:40:46.346Z,100156.33
2018-12-07T05:43:15.838Z,100146.13
2018-12-07T05:45:45.189Z,100147.34
2018-12-07T05:48:14.940Z,100149.75
2018-12-07T05:50:44.444Z,100146.02
2018-12-07T05:53:13.889Z,100147.94
2018-12-07T05:55:43.288Z,100146.86
2018-12-07T05:58:12.564Z,100141.75
2018-12-07T06:00:41.992Z,100132.66
2018-12-07T06:03:11.537Z,100125.50
2018-12-07T06:05:40.927Z,100125.73
2018-12-07T06:08:10.560Z,100132.37
2018-12-07T06:10:40.030Z,100133.23
2018-12-07T06:13:09.379Z,100138.09
2018-12-07T06:15:38.649Z,100133.33
2018-12-07T06:18:08.087Z,100136.13
2018-12-07T06:20:38.589Z,100123.62
2018-12-07T06:23:08.330Z,100122.52
2018-12-07T06:25:37.840Z,100121.77
2018-12-07T06:28:07.353Z,100120.33
2018-12-07T06:30:36.907Z,100114.99
2018-12-07T06:33:06.435Z,100115.09
2018-12-07T06:35:38.052Z,100116.81
2018-12-07T06:38:07.426Z,100109.74
2018-12-07T06:40:36.748Z,100109.61
2018-12-07T06:43:06.167Z,100108.10
2018-12-07T06:45:35.737Z,100105.08
2018-12-07T06:48:05.743Z,100099.50
2018-12-07T06:50:36.894Z,100101.55
2018-12-07T06:53:07.443Z,100093.53
2018-12-07T06:55:36.858Z,100091.71
2018-12-07T06:58:06.732Z,100085.73
2018-12-07T07:00:36.028Z,100075.67
2018-12-07T07:03:06.634Z,100069.56
2018-12-07T07:05:35.931Z,100065.19
2018-12-07T07:08:07.401Z,100061.40
2018-12-07T07:10:36.760Z,100063.95
2018-12-07T07:13:06.696Z,100051.08
2018-12-07T07:15:36.092Z,100054.00
2018-12-07T07:18:05.401Z,100053.31
2018-12-07T07:20:34.896Z,100049.52
2018-12-07T07:23:04.540Z,100041.50
2018-12-07T07:25:33.999Z,100040.28
2018-12-07T07:28:03.401Z,100034.31
2018-12-07T07:30:32.822Z,100036.63
2018-12-07T07:33:02.370Z,100034.80
2018-12-07T07:35:31.763Z,100029.33
2018-12-07T07:38:01.250Z,100031.02
2018-12-07T07:40:30.713Z,100023.70
2018-12-07T07:43:00.276Z,100016.75
2018-12-07T07:45:29.635Z,100019.67
2018-12-07T07:47:58.977Z,100010.56
2018-12-07T07:50:28.431Z,100010.55
2018-12-07T07:52:57.748Z,99988.31
2018-12-07T07:55:27.063Z,99992.59
2018-12-07T07:57:56.694Z,99987.70
2018-12-07T08:00:26.680Z,99984.32
2018-12-07T08:02:59.910Z,99976.06
2018-12-07T08:05:31.170Z,99975.78
2018-12-07T08:08:00.405Z,99977.75
2018-12-07T08:10:30.155Z,99974.45
2018-12-07T08:12:59.522Z,99972.13
2018-12-07T08:15:28.934Z,99973.90
2018-12-07T08:17:58.210Z,99970.63
2018-12-07T08:20:28.009Z,99960.92
2018-12-07T08:22:57.517Z,99961.48
2018-12-07T08:25:26.783Z,99955.72
2018-12-07T08:27:56.149Z,99944.78
2018-12-07T08:30:25.877Z,99947.92
2018-12-07T08:32:55.696Z,99944.26
2018-12-07T08:35:25.053Z,99941.16
2018-12-07T08:37:54.362Z,99942.11
2018-12-07T08:40:23.714Z,99937.14
2018-12-07T08:42:53.328Z,99934.09
2018-12-07T08:45:23.180Z,99932.92
2018-12-07T08:47:52.436Z,99934.09
2018-12-07T08:50:21.941Z,99929.97
2018-12-07T08:52:53.464Z,99926.17
2018-12-07T08:55:22.784Z,99915.97
2018-12-07T08:57:52.549Z,99917.80
2018-12-07T09:00:21.840Z,99904.14
2018-12-07T09:02:51.184Z,99897.56
2018-12-07T09:05:20.774Z,99893.27
2018-12-07T09:07:50.268Z,99881.58
2018-12-07T09:10:19.568Z,99885.59
2018-12-07T09:12:48.948Z,99885.24
2018-12-07T09:15:18.256Z,99882.00
2018-12-07T09:17:48.808Z,99877.98
2018-12-07T09:20:18.443Z,99883.62
2018-12-07T09:22:47.784Z,99870.95
2018-12-07T09:25:17.212Z,99867.22
2018-12-07T09:27:46.458Z,99865.59
2018-12-07T09:30:16.323Z,99861.23
2018-12-07T09:32:45.699Z,99856.97
2018-12-07T09:35:15.012Z,99853.56
2018-12-07T09:37:44.305Z,99856.69
2018-12-07T09:40:15.126Z,99850.82
2018-12-07T09:42:45.051Z,99850.12
2018-12-07T09:45:14.343Z,99847.02
2018-12-07T09:47:44.483Z,99835.47
2018-12-07T09:50:13.799Z,99835.13
2018-12-07T09:52:43.180Z,99832.80
2018-12-07T09:55:12.873Z,99824.48
2018-12-07T09:57:42.193Z,99822.80
2018-12-07T10:00:11.952Z,99813.93
2018-12-07T10:02:42.417Z,99810.00
2018-12-07T10:05:11.732Z,99799.71
2018-12-07T10:07:40.988Z,99800.14
2018-12-07T10:10:11.620Z,99793.80
2018-12-07T10:12:40.916Z,99793.38
2018-12-07T10:15:10.488Z,99789.11
2018-12-07T10:17:39.932Z,99783.96
2018-12-07T10:20:09.469Z,99768.75
2018-12-07T10:22:38.879Z,99775.09
2018-12-07T10:25:08.384Z,99765.73
2018-12-07T10:27:37.814Z,99759.73
2018-12-07T10:30:07.293Z,99753.48
2018-12-07T10:32:36.708Z,99737.64
2018-12-07T10:35:06.169Z,99740.95
2018-12-07T10:37:35.451Z,99728.92
2018-12-07T10:40:05.831Z,99721.59
2018-12-07T10:42:35.035Z,99721.73
2018-12-07T10:45:04.889Z,99716.09
2018-12-07T10:47:34.124Z,99719.31
2018-12-07T10:50:03.480Z,99701.82
2018-12-07T10:52:32.845Z,99699.14
2018-12-07T10:55:02.426Z,99696.38
2018-12-07T10:57:31.635Z,99687.22
2018-12-07T11:00:00.966Z,99686.12
2018-12-07T11:02:35.663Z,99678.09
2018-12-07T11:05:10.282Z,99672.74
2018-12-07T11:07:45.092Z,99668.78
2018-12-07T11:10:19.817Z,99660.41
2018-12-07T11:12:54.460Z,99661.75
2018-12-07T11:15:29.393Z,99651.49
2018-12-07T11:18:03.964Z,99644.66
2018-12-07T11:20:38.857Z,99633.88
2018-12-07T11:23:14.086Z,99632.27
2018-12-07T11:25:48.613Z,99620.92
2018-12-07T11:28:23.314Z,99620.84
2018-12-07T11:30:58.080Z,99613.11
2018-12-07T11:33:37.659Z,99609.41
2018-12-07T11:36:08.201Z,99611.23
2018-12-07T11:38:37.803Z,99599.00
2018-12-07T11:41:07.118Z,99597.28
2018-12-07T11:43:36.471Z,99581.66
2018-12-07T11:46:05.846Z,99572.60
2018-12-07T11:48:35.444Z,99570.12
2018-12-07T11:51:04.712Z,99559.15
2018-12-07T11:53:34.047Z,99553.80
2018-12-07T11:56:03.324Z,99546.77
2018-12-07T11:58:32.580Z,99534.39
2018-12-07T12:01:01.962Z,99530.03
2018-12-07T12:03:31.795Z,99523.20
2018-12-07T12:06:01.045Z,99523.17
2018-12-07T12:08:30.548Z,99511.78
2018-12-07T12:11:00.282Z,99505.39
2018-12-07T12:13:29.699Z,99512.08
2018-12-07T12:15:59.093Z,99499.33
2018-12-07T12:18:28.572Z,99496.65
2018-12-07T12:20:57.867Z,99498.63
2018-12-07T12:23:27.179Z,99488.01
2018-12-07T12:25:56.986Z,99483.42
2018-12-07T12:28:26.608Z,99480.36
2018-12-07T12:30:55.994Z,99478.03
2018-12-07T12:33:25.647Z,99473.33
2018-12-07T12:35:55.000Z,99467.33
2018-12-07T12:38:24.337Z,99464.86
2018-12-07T12:40:53.611Z,99463.38
2018-12-07T12:43:22.848Z,99455.30
2018-12-07T12:45:52.412Z,99451.64
2018-12-07T12:48:22.344Z,99450.30
2018-12-07T12:50:51.676Z,99435.59
2018-12-07T12:53:20.911Z,99431.48
2018-12-07T12:55:51.031Z,99425.67
2018-12-07T12:58:20.405Z,99413.02
2018-12-07T13:00:49.743Z,99415.93
2018-12-07T13:03:20.635Z,99412.64
2018-12-07T13:05:49.912Z,99405.69
2018-12-07T13:08:19.869Z,99395.27
2018-12-07T13:10:49.860Z,99395.53
2018-12-07T13:13:19.252Z,99387.52
2018-12-07T13:15:49.667Z,99386.78
2018-12-07T13:18:19.024Z,99384.30
2018-12-07T13:20:48.314Z,99368.95
2018-12-07T13:23:17.544Z,99370.13
2018-12-07T13:25:46.910Z,99366.47
2018-12-07T13:28:16.454Z,99365.50
2018-12-07T13:30:45.757Z,99352.41
2018-12-07T13:33:15.060Z,99345.73
2018-12-07T13:35:44.395Z,99344.05
2018-12-07T13:38:13.696Z,99330.33
2018-12-07T13:40:43.219Z,99329.69
2018-12-07T13:43:12.768Z,99329.69
2018-12-07T13:45:42.794Z,99318.84
2018-12-07T13:48:12.506Z,99311.81
2018-12-07T13:50:43.489Z,99310.31
2018-12-07T13:53:13.156Z,99309.36
2018-12-07T13:55:42.897Z,99307.24
2018-12-07T13:58:12.505Z,99306.91
2018-12-07T14:00:42.170Z,99296.27
2018-12-07T14:03:11.693Z,99296.42
2018-12-07T14:05:41.608Z,99283.95
2018-12-07T14:08:11.532Z,99280.56
2018-12-07T14:10:42.620Z,99268.69
2018-12-07T14:13:14.918Z,99267.53
2018-12-07T14:15:44.727Z,99257.99
2018-12-07T14:18:14.470Z,99262.19
2018-12-07T14:20:44.086Z,99256.16
2018-12-07T14:23:13.668Z,99251.25
2018-12-07T14:25:43.217Z,99247.98
2018-12-07T14:28:12.823Z,99242.39
2018-12-07T14:30:42.332Z,99245.25
2018-12-07T14:33:11.792Z,99236.45
2018-12-07T14:35:41.357Z,99233.06
2018-12-07T14:38:10.594Z,99229.61
2018-12-07T14:40:40.087Z,99232.53
2018-12-07T14:43:10.092Z,99223.67
2018-12-07T14:45:39.524Z,99223.08
2018-12-07T14:48:08.862Z,99214.66
2018-12-07T14:50:38.351Z,99214.90
2018-12-07T14:53:07.886Z,99198.11
2018-12-07T14:55:37.555Z,99202.46
2018-12-07T14:58:07.097Z,99202.41
2018-12-07T15:00:36.719Z,99202.80
2018-12-07T15:03:06.119Z,99196.95
2018-12-07T15:05:35.929Z,99185.58
2018-12-07T15:08:05.819Z,99177.34
2018-12-07T15:10:35.345Z,99175.67
2018-12-07T15:13:06.213Z,99171.28
2018-12-07T15:15:35.673Z,99165.44
2018-12-07T15:18:05.160Z,99164.59
2018-12-07T15:20:34.668Z,99164.92
2018-12-07T15:23:04.382Z,99154.56
2018-12-07T15:25:33.785Z,99157.58
2018-12-07T15:28:03.452Z,99153.88
2018-12-07T15:30:33.103Z,99138.44
2018-12-07T15:33:02.416Z,99132.07
2018-12-07T15:35:31.955Z,99126.07
2018-12-07T15:38:01.560Z,99125.21
2018-12-07T15:40:31.018Z,99122.20
2018-12-07T15:43:00.380Z,99112.19
2018-12-07T15:45:29.842Z,99110.17
2018-12-07T15:47:59.239Z,99098.32
2018-12-07T15:50:29.503Z,99102.30
2018-12-07T15:52:59.205Z,99089.78
2018-12-07T15:55:28.981Z,99095.91
2018-12-07T15:57:58.533Z,99091.06
2018-12-07T16:00:28.356Z,99088.89
2018-12-07T16:02:58.176Z,99090.70
2018-12-07T16:05:27.852Z,99079.17
2018-12-07T16:07:57.297Z,99070.84
2018-12-07T16:10:26.719Z,99065.16
2018-12-07T16:12:56.148Z,99065.16
2018-12-07T16:15:33.743Z,99057.81
2018-12-07T16:18:03.574Z,99062.50
2018-12-07T16:20:33.273Z,99051.27
2018-12-07T16:23:02.529Z,99055.32
2018-12-07T16:25:32.000Z,99049.98
2018-12-07T16:28:01.555Z,99051.47
2018-12-07T16:30:31.297Z,99037.92
2018-12-07T16:33:00.805Z,99037.43
2018-12-07T16:35:30.379Z,99029.41
2018-12-07T16:38:00.069Z,99023.41
2018-12-07T16:40:29.561Z,99015.55
2018-12-07T16:42:58.999Z,99013.72
2018-12-07T16:45:28.865Z,98999.18
2018-12-07T16:47:58.447Z,98996.69
2018-12-07T16:50:27.971Z,98986.66
2018-12-07T16:52:57.623Z,98992.66
2018-12-07T16:55:27.326Z,98977.94
2018-12-07T16:57:56.773Z,98975.95
2018-12-07T17:00:26.352Z,98972.09
2018-12-07T17:02:56.221Z,98974.56
2018-12-07T17:05:26.203Z,98969.05
2018-12-07T17:07:55.852Z,98959.70
2018-12-07T17:10:25.310Z,98955.70
2018-12-07T17:12:54.959Z,98945.98
2018-12-07T17:15:25.113Z,98948.32
2018-12-07T17:17:54.594Z,98936.45
2018-12-07T17:20:24.279Z,98930.12
2018-12-07T17:22:53.690Z,98914.42
2018-12-07T17:25:22.999Z,98914.42
2018-12-07T17:27:52.805Z,98913.77
2018-12-07T17:30:23.917Z,98912.11
2018-12-07T17:32:53.252Z,98902.08
2018-12-07T17:35:22.595Z,98907.08
2018-12-07T17:37:52.080Z,98891.39
2018-12-07T17:40:25.436Z,98882.02
2018-12-07T17:42:54.806Z,98884.02
2018-12-07T17:45:24.238Z,98886.15
2018-12-07T17:47:54.908Z,98888.64
2018-12-07T17:50:24.731Z,98875.95
2018-12-07T17:52:54.975Z,98877.61
2018-12-07T17:55:25.321Z,98861.21
2018-12-07T17:57:54.758Z,98861.03
2018-12-07T18:00:24.324Z,98849.17
2018-12-07T18:02:54.977Z,98851.50
2018-12-07T18:05:24.446Z,98843.98
2018-12-07T18:07:53.806Z,98840.81
2018-12-07T18:10:23.902Z,98828.92
2018-12-07T18:12:53.443Z,98821.73
2018-12-07T18:15:23.322Z,98820.05
2018-12-07T18:17:53.176Z,98819.34
2018-12-07T18:20:22.884Z,98822.34
2018-12-07T18:22:52.267Z,98808.98
2018-12-07T18:25:22.147Z,98816.67
2018-12-07T18:27:51.759Z,98801.31
2018-12-07T18:30:21.042Z,98794.96
2018-12-07T18:32:50.871Z,98795.63
2018-12-07T18:35:20.425Z,98794.13
2018-12-07T18:37:49.914Z,98795.96
2018-12-07T18:40:19.957Z,98794.46
2018-12-07T18:42:49.518Z,98784.78
2018-12-07T18:45:19.012Z,98781.27
2018-12-07T18:47:49.205Z,98778.11
2018-12-07T18:50:18.883Z,98769.59
2018-12-07T18:52:48.245Z,98762.59
2018-12-07T18:55:18.338Z,98763.75
2018-12-07T18:57:47.682Z,98764.58
2018-12-07T19:00:17.591Z,98760.27
2018-12-07T19:02:47.534Z,98757.59
2018-12-07T19:05:16.995Z,98748.75
2018-12-07T19:07:46.682Z,98749.91
2018-12-07T19:10:16.135Z,98739.55
2018-12-07T19:12:45.710Z,98737.72
2018-12-07T19:15:15.261Z,98737.22
2018-12-07T19:17:44.954Z,98730.05
2018-12-07T19:20:14.365Z,98732.05
2018-12-07T19:22:43.975Z,98734.51
2018-12-07T19:25:13.768Z,98729.33
2018-12-07T19:27:43.122Z,98721.33
2018-12-07T19:30:14.759Z,98721.83
2018-12-07T19:32:44.048Z,98714.48
2018-12-07T19:35:13.672Z,98722.48
2018-12-07T19:37:44.426Z,98704.30
2018-12-07T19:40:14.017Z,98695.13
2018-12-07T19:42:43.550Z,98694.12
2018-12-07T19:45:13.146Z,98695.80
2018-12-07T19:47:42.558Z,98688.29
2018-12-07T19:50:12.364Z,98681.11
2018-12-07T19:52:41.898Z,98682.81
2018-12-07T19:55:11.330Z,98673.47
2018-12-07T19:57:40.754Z,98666.77
2018-12-07T20:00:11.154Z,98666.42
2018-12-07T20:02:40.939Z,98667.75
2018-12-07T20:05:11.560Z,98658.91
2018-12-07T20:07:40.994Z,98652.03
2018-12-07T20:10:10.612Z,98647.70
2018-12-07T20:12:40.071Z,98645.36
2018-12-07T20:15:09.633Z,98646.90
2018-12-07T20:17:39.088Z,98648.37
2018-12-07T20:20:08.838Z,98652.03
2018-12-07T20:22:38.419Z,98647.73
2018-12-07T20:25:07.963Z,98649.08
2018-12-07T20:27:38.084Z,98657.25
2018-12-07T20:30:08.298Z,98656.41
2018-12-07T20:32:37.989Z,98681.39
2018-12-07T20:35:07.571Z,98696.78
2018-12-07T20:37:37.046Z,98705.28
2018-12-07T20:40:06.578Z,98733.28
2018-12-07T20:42:36.028Z,98737.40
2018-12-07T20:45:05.945Z,98765.61
2018-12-07T20:47:35.576Z,98761.95
2018-12-07T20:50:05.891Z,98766.16
2018-12-07T20:52:35.218Z,98782.51
2018-12-07T20:55:05.159Z,98784.39
2018-12-07T20:57:34.785Z,98800.87
2018-12-07T21:00:05.925Z,98814.09
2018-12-07T21:02:35.707Z,98830.84
2018-12-07T21:06:02.815Z,98821.19
2018-12-07T21:09:26.502Z,98819.72
2018-12-07T21:12:10.805Z,98831.36
2018-12-07T21:14:44.174Z,98828.78
2018-12-07T21:17:20.552Z,98836.70
2018-12-07T21:19:57.122Z,98838.72
2018-12-07T21:22:26.857Z,98846.94
2018-12-07T21:24:56.451Z,98851.56
2018-12-07T21:27:26.057Z,98863.59
2018-12-07T21:33:38.765Z,98876.30
2018-12-07T21:36:35.345Z,98879.94
2018-12-07T21:39:10.032Z,98882.52
2018-12-07T21:41:40.784Z,98888.47
2018-12-07T21:44:15.314Z,98895.11
2018-12-07T21:46:46.288Z,98897.17
2018-12-07T21:49:15.938Z,98898.30
2018-12-07T21:52:04.070Z,98914.16
2018-12-07T21:54:33.517Z,98924.79
2018-12-07T21:57:03.342Z,98925.98
2018-12-07T21:59:33.422Z,98935.91
2018-12-07T22:02:03.799Z,98929.89
2018-12-07T22:04:33.893Z,98924.33
2018-12-07T22:07:05.154Z,98926.98
2018-12-07T22:09:35.315Z,98929.22
2018-12-07T22:12:04.799Z,98933.20
2018-12-07T22:14:34.391Z,98943.23
2018-12-07T22:17:03.716Z,98943.13
2018-12-07T22:19:34.255Z,98953.02
2018-12-07T22:22:04.817Z,98965.95
2018-12-07T22:24:34.474Z,98970.20
2018-12-07T22:27:09.327Z,98973.56
2018-12-07T22:29:40.550Z,98988.88
2018-12-07T22:32:11.071Z,98996.20
2018-12-07T22:34:40.679Z,98990.62
2018-12-07T22:37:10.337Z,98991.67
2018-12-07T22:39:40.276Z,98997.48
2018-12-07T22:42:10.209Z,98991.25
2018-12-07T22:44:39.922Z,99013.32
2018-12-07T22:47:15.218Z,99003.41
2018-12-07T22:49:45.140Z,99019.34
2018-12-07T22:52:14.796Z,99010.05
2018-12-07T22:54:45.160Z,99014.16
2018-12-07T22:57:15.651Z,99021.02
2018-12-07T22:59:46.679Z,99027.03
2018-12-07T23:02:16.065Z,99035.70
2018-12-07T23:04:45.408Z,99051.53
2018-12-07T23:07:15.273Z,99041.75
2018-12-07T23:09:45.972Z,99052.02
2018-12-07T23:12:22.519Z,99035.00
2018-12-07T23:14:51.805Z,99036.94
2018-12-07T23:17:21.160Z,99053.92
2018-12-07T23:19:50.609Z,99045.38
2018-12-07T23:22:21.125Z,99047.77
2018-12-07T23:24:50.621Z,99049.94
2018-12-07T23:27:20.077Z,99049.94
2018-12-07T23:29:49.549Z,99034.63
2018-12-07T23:32:20.044Z,99044.05
2018-12-07T23:34:51.013Z,99050.69
2018-12-07T23:37:20.386Z,99047.90
2018-12-07T23:39:51.494Z,99059.59
2018-12-07T23:42:21.702Z,99067.69
2018-12-07T23:44:50.997Z,99068.17
2018-12-07T23:47:24.860Z,99062.25
2018-12-07T23:50:02.838Z,99068.53
2018-12-07T23:52:43.557Z,99064.91
2018-12-07T23:55:14.999Z,99067.10
2018-12-07T23:57:44.233Z,99078.17
